Time;durP1;ratioP1;P1;durP2;ratioP2;P2;SDS_P1;SDS_P2;PMS_P1;PMS_P2;Temp;Humidity;BMP_temperature;BMP_pressure;BME280_temperature;BME280_humidity;BME280_pressure;Samples;Min_cycle;Max_cycle;Signal;HPM_P1;HPM_P2
2023/01/06 00:00:20;;;;;;;11.05;3.10;;;6.80;99.90;;;;;;5044434;28;20465;-80
2023/01/06 00:02:46;;;;;;;25.30;3.53;;;6.80;99.90;;;;;;5069040;28;20034;-79
2023/01/06 00:05:12;;;;;;;18.08;3.38;;;6.80;99.90;;;;;;5043073;28;20094;-79
2023/01/06 00:07:38;;;;;;;11.68;3.60;;;6.80;99.90;;;;;;5046170;28;20085;-79
2023/01/06 00:10:06;;;;;;;10.48;3.08;;;6.70;99.90;;;;;;5052739;28;20021;-80
2023/01/06 00:12:31;;;;;;;12.02;3.25;;;6.70;99.90;;;;;;5055347;28;20052;-79
2023/01/06 00:14:57;;;;;;;14.30;3.55;;;6.70;99.90;;;;;;5077573;28;20063;-77
2023/01/06 00:17:24;;;;;;;13.75;4.10;;;6.70;99.90;;;;;;5060090;28;20027;-80
2023/01/06 00:19:50;;;;;;;9.55;2.83;;;6.70;99.90;;;;;;5071779;28;20023;-79
2023/01/06 00:22:16;;;;;;;20.67;3.75;;;6.70;99.90;;;;;;5054721;28;20031;-78
2023/01/06 00:24:42;;;;;;;17.10;3.67;;;6.70;99.90;;;;;;5055028;28;20092;-79
2023/01/06 00:27:08;;;;;;;11.52;3.20;;;6.70;99.90;;;;;;5077659;28;20039;-80
2023/01/06 00:29:34;;;;;;;13.55;3.28;;;6.70;99.90;;;;;;5068106;28;20653;-80
2023/01/06 00:32:00;;;;;;;14.48;3.42;;;6.70;99.90;;;;;;5043389;28;20067;-79
2023/01/06 00:34:28;;;;;;;16.55;4.13;;;6.80;99.90;;;;;;5065316;28;20051;-80
2023/01/06 00:36:55;;;;;;;10.50;3.20;;;6.80;99.90;;;;;;5059678;28;20028;-80
2023/01/06 00:39:20;;;;;;;12.48;3.20;;;6.90;99.90;;;;;;5078168;28;20039;-78
2023/01/06 00:42:02;;;;;;;12.63;3.30;;;6.90;99.90;;;;;;5063041;28;20183;-78
2023/01/06 00:44:33;;;;;;;7.80;2.97;;;6.90;99.90;;;;;;5045556;28;20032;-77
2023/01/06 00:47:00;;;;;;;9.57;2.75;;;6.90;99.90;;;;;;5078365;28;20072;-79
2023/01/06 00:49:26;;;;;;;11.68;2.88;;;6.90;99.90;;;;;;5076676;28;20028;-76
2023/01/06 00:51:52;;;;;;;7.00;2.67;;;7.00;99.90;;;;;;5037855;28;20512;-78
2023/01/06 00:54:19;;;;;;;8.23;2.97;;;7.00;99.90;;;;;;5062327;28;20397;-78
2023/01/06 00:56:49;;;;;;;10.55;2.90;;;6.90;99.90;;;;;;5060184;28;20028;-78
2023/01/06 00:59:17;;;;;;;10.18;2.60;;;7.00;99.90;;;;;;5063872;28;20020;-77
2023/01/06 01:01:45;;;;;;;9.15;2.70;;;7.00;99.90;;;;;;5050066;28;20021;-79
2023/01/06 01:04:12;;;;;;;13.10;2.90;;;7.00;99.90;;;;;;5059868;28;20036;-79
2023/01/06 01:06:39;;;;;;;9.68;2.97;;;7.00;99.90;;;;;;5058155;28;20085;-78
2023/01/06 01:09:06;;;;;;;6.22;2.90;;;7.00;99.90;;;;;;5075420;28;20032;-77
2023/01/06 01:14:19;;;;;;;9.27;3.00;;;7.00;99.90;;;;;;5048711;28;20032;-81
2023/01/06 01:16:46;;;;;;;6.63;3.40;;;7.00;99.90;;;;;;5055738;28;20032;-80
2023/01/06 01:19:12;;;;;;;12.02;3.72;;;7.00;99.90;;;;;;5056974;28;20438;-79
2023/01/06 01:21:38;;;;;;;7.97;3.78;;;7.10;99.90;;;;;;5051200;28;20032;-79
2023/01/06 01:24:04;;;;;;;9.23;3.45;;;7.10;99.90;;;;;;5051794;28;20048;-79
2023/01/06 01:26:31;;;;;;;10.25;3.55;;;7.10;99.90;;;;;;5058510;28;20071;-80
2023/01/06 01:28:57;;;;;;;9.85;3.67;;;7.20;99.90;;;;;;5035447;28;20040;-78
2023/01/06 01:31:23;;;;;;;8.65;3.78;;;7.20;99.90;;;;;;5024445;28;21172;-80
2023/01/06 01:33:49;;;;;;;7.68;3.90;;;7.20;99.90;;;;;;5034274;28;20048;-80
2023/01/06 01:36:17;;;;;;;11.70;3.65;;;7.20;99.90;;;;;;5064518;28;20028;-78
2023/01/06 01:38:43;;;;;;;9.48;3.60;;;7.20;99.90;;;;;;5025085;28;20517;-79
2023/01/06 01:41:15;;;;;;;13.98;5.00;;;7.20;99.90;;;;;;5034134;28;20028;-79
2023/01/06 01:43:47;;;;;;;13.00;4.43;;;7.20;99.90;;;;;;5040167;28;20127;-81
2023/01/06 01:46:34;;;;;;;6.63;3.67;;;7.30;99.90;;;;;;5052619;28;20040;-79
2023/01/06 01:49:05;;;;;;;12.98;4.30;;;7.30;99.90;;;;;;5051436;28;20051;-80
2023/01/06 01:51:36;;;;;;;12.20;4.15;;;7.30;99.90;;;;;;5046877;28;20029;-79
2023/01/06 01:54:07;;;;;;;11.00;4.15;;;7.30;99.90;;;;;;5062748;28;20032;-81
2023/01/06 01:56:41;;;;;;;12.38;4.90;;;7.30;99.90;;;;;;5044435;28;20200;-79
2023/01/06 01:59:17;;;;;;;8.93;4.10;;;7.30;99.90;;;;;;5047171;28;20059;-79
2023/01/06 02:01:45;;;;;;;10.57;4.07;;;7.30;99.90;;;;;;5045002;28;20096;-79
2023/01/06 02:04:13;;;;;;;13.20;4.43;;;7.30;99.90;;;;;;5049671;28;20045;-80
2023/01/06 02:06:39;;;;;;;9.57;4.60;;;7.30;99.90;;;;;;5049637;28;20021;-79
2023/01/06 02:09:26;;;;;;;9.95;4.93;;;7.30;99.90;;;;;;5034100;28;20039;-80
2023/01/06 02:11:55;;;;;;;9.73;5.03;;;7.40;99.90;;;;;;5067650;28;20033;-80
2023/01/06 02:14:23;;;;;;;9.80;5.22;;;7.40;99.90;;;;;;5032456;28;20082;-78
2023/01/06 02:16:55;;;;;;;15.00;5.35;;;7.40;99.90;;;;;;5031670;28;20024;-80
2023/01/06 02:19:46;;;;;;;11.40;5.25;;;7.50;99.90;;;;;;5043133;28;20023;-78
2023/01/06 02:22:42;;;;;;;12.55;4.85;;;7.40;99.90;;;;;;5035968;28;20056;-79
2023/01/06 02:25:20;;;;;;;9.35;4.50;;;7.50;99.90;;;;;;5049146;28;20150;-80
2023/01/06 02:27:58;;;;;;;12.18;5.28;;;7.50;99.90;;;;;;5051106;28;20614;-80
2023/01/06 02:30:47;;;;;;;10.30;5.00;;;7.50;99.90;;;;;;5043502;28;20119;-79
2023/01/06 02:34:01;;;;;;;7.60;4.60;;;7.50;99.90;;;;;;5046695;28;20036;-79
2023/01/06 02:36:44;;;;;;;9.23;4.55;;;7.50;99.90;;;;;;5026149;28;20119;-80
2023/01/06 02:39:32;;;;;;;90.70;8.95;;;7.50;99.90;;;;;;5054419;28;20423;-79
2023/01/06 02:42:07;;;;;;;78.80;7.22;;;7.60;99.90;;;;;;5051737;28;20052;-78
2023/01/06 02:44:58;;;;;;;9.80;5.20;;;7.50;99.90;;;;;;5052112;28;20028;-79
2023/01/06 02:47:48;;;;;;;49.90;6.78;;;7.60;99.90;;;;;;5071013;28;20024;-80
2023/01/06 02:50:37;;;;;;;16.17;4.97;;;7.60;99.90;;;;;;5072354;28;20032;-80
2023/01/06 02:53:20;;;;;;;18.85;4.60;;;7.60;99.90;;;;;;5065972;28;20024;-79
2023/01/06 02:55:53;;;;;;;12.07;4.97;;;7.60;99.90;;;;;;5049751;28;20036;-78
2023/01/06 02:58:46;;;;;;;114.22;8.70;;;7.70;99.90;;;;;;5071479;28;20024;-78
2023/01/06 03:01:21;;;;;;;16.20;4.13;;;7.60;99.90;;;;;;5059868;28;20487;-79
2023/01/06 03:03:50;;;;;;;15.80;4.63;;;7.60;99.90;;;;;;5047941;28;20052;-80
2023/01/06 03:06:20;;;;;;;9.77;4.85;;;7.60;99.90;;;;;;5037691;28;20400;-78
2023/01/06 03:08:48;;;;;;;54.28;6.85;;;7.60;99.90;;;;;;5032786;28;20488;-79
2023/01/06 03:11:16;;;;;;;270.20;16.58;;;7.60;99.90;;;;;;5052491;28;20036;-79
2023/01/06 03:13:51;;;;;;;138.18;9.82;;;7.70;99.90;;;;;;5056145;28;20066;-80
2023/01/06 03:16:18;;;;;;;204.48;12.02;;;7.60;99.90;;;;;;5052304;28;20450;-78
2023/01/06 03:18:47;;;;;;;9.80;4.47;;;7.60;99.90;;;;;;5061869;28;20047;-78
2023/01/06 03:21:17;;;;;;;130.23;10.15;;;7.70;99.90;;;;;;5044845;28;21212;-78
2023/01/06 03:23:45;;;;;;;12.95;3.85;;;7.70;99.90;;;;;;5055670;28;20036;-79
2023/01/06 03:26:11;;;;;;;17.50;4.88;;;7.70;99.90;;;;;;5060384;28;20037;-79
2023/01/06 03:28:38;;;;;;;10.73;4.28;;;7.70;99.90;;;;;;5063437;28;20051;-78
2023/01/06 03:31:11;;;;;;;9.88;4.10;;;7.70;99.90;;;;;;5060677;28;20025;-79
2023/01/06 03:33:50;;;;;;;46.63;6.30;;;7.70;99.90;;;;;;5070297;28;20516;-79
2023/01/06 03:36:29;;;;;;;147.50;10.98;;;7.70;99.90;;;;;;5060525;28;20509;-80
2023/01/06 03:39:13;;;;;;;58.58;6.70;;;7.80;99.90;;;;;;5069948;28;20129;-80
2023/01/06 03:44:52;;;;;;;7.88;4.07;;;7.80;99.90;;;;;;5072868;28;20050;-79
2023/01/06 03:47:51;;;;;;;9.32;4.72;;;7.80;99.90;;;;;;5062027;28;20021;-80
2023/01/06 03:50:41;;;;;;;33.28;5.40;;;7.80;99.90;;;;;;5044147;28;20036;-80
2023/01/06 03:53:32;;;;;;;95.57;8.13;;;7.90;99.90;;;;;;5037129;28;20024;-79
2023/01/06 03:56:26;;;;;;;53.00;7.05;;;7.90;99.90;;;;;;5053746;28;20025;-78
2023/01/06 03:58:57;;;;;;;13.32;5.32;;;7.90;99.90;;;;;;5061007;28;20103;-80
2023/01/06 04:01:25;;;;;;;17.95;4.75;;;7.90;99.90;;;;;;5024261;28;20051;-78
2023/01/06 04:03:53;;;;;;;13.73;5.05;;;7.90;99.90;;;;;;5041028;28;20492;-80
2023/01/06 04:06:21;;;;;;;40.85;5.38;;;7.90;99.90;;;;;;5057310;28;20438;-81
2023/01/06 04:08:48;;;;;;;27.40;5.15;;;8.00;99.90;;;;;;5057872;28;20037;-80
2023/01/06 04:14:00;;;;;;;115.82;8.18;;;8.00;99.90;;;;;;5038796;28;20075;-81
2023/01/06 04:16:27;;;;;;;22.33;4.75;;;8.00;99.90;;;;;;5036749;28;20028;-80
2023/01/06 04:18:53;;;;;;;20.52;4.55;;;8.10;99.90;;;;;;5031689;28;20029;-79
2023/01/06 04:21:19;;;;;;;34.40;6.40;;;8.00;99.90;;;;;;5051643;28;20032;-78
2023/01/06 04:23:45;;;;;;;11.85;4.80;;;8.10;99.90;;;;;;5032190;28;20033;-74
2023/01/06 04:26:11;;;;;;;100.25;8.95;;;8.10;99.90;;;;;;5027850;28;20036;-81
2023/01/06 04:28:44;;;;;;;10.23;4.90;;;8.10;99.90;;;;;;5056748;28;20028;-80
2023/01/06 04:31:11;;;;;;;13.65;5.85;;;8.10;99.90;;;;;;5056701;28;20028;-80
2023/01/06 04:33:38;;;;;;;141.43;12.63;;;8.10;99.90;;;;;;5054680;28;20060;-78
2023/01/06 04:36:07;;;;;;;10.32;5.32;;;8.10;99.90;;;;;;5056438;28;20040;-79
2023/01/06 04:38:35;;;;;;;29.83;5.90;;;8.10;99.90;;;;;;5060201;28;20556;-81
2023/01/06 04:41:00;;;;;;;183.23;13.80;;;8.10;99.90;;;;;;5060683;28;20039;-79
2023/01/06 04:43:27;;;;;;;13.25;4.88;;;8.20;99.90;;;;;;5064985;28;20029;-79
2023/01/06 04:45:52;;;;;;;9.32;4.85;;;8.10;99.90;;;;;;5054629;28;20052;-80
2023/01/06 04:48:18;;;;;;;11.02;5.38;;;8.10;99.90;;;;;;5051090;28;20054;-79
2023/01/06 04:50:44;;;;;;;14.93;4.53;;;8.20;99.90;;;;;;5039834;28;20052;-80
2023/01/06 04:53:11;;;;;;;224.80;13.43;;;8.20;99.90;;;;;;5054536;28;20039;-80
2023/01/06 04:55:38;;;;;;;52.00;5.68;;;8.20;99.90;;;;;;5057457;28;20032;-80
2023/01/06 04:58:04;;;;;;;21.20;4.65;;;8.20;99.90;;;;;;5062024;28;20024;-80
2023/01/06 05:00:30;;;;;;;30.60;5.22;;;8.20;99.90;;;;;;5055738;28;20082;-80
2023/01/06 05:02:56;;;;;;;11.77;4.80;;;8.20;99.90;;;;;;5054424;28;20064;-80
2023/01/06 05:05:22;;;;;;;34.53;5.07;;;8.20;99.90;;;;;;5075636;28;20024;-80
2023/01/06 05:07:48;;;;;;;7.63;4.85;;;8.20;99.90;;;;;;5052506;28;20094;-80
2023/01/06 05:10:13;;;;;;;9.18;4.95;;;8.20;99.90;;;;;;5021334;28;20120;-80
2023/01/06 05:12:39;;;;;;;8.63;4.20;;;8.30;99.90;;;;;;5056299;28;20029;-80
2023/01/06 05:15:06;;;;;;;123.10;10.10;;;8.20;99.90;;;;;;5047049;28;20036;-80
2023/01/06 05:17:32;;;;;;;55.15;6.25;;;8.30;99.90;;;;;;5059250;28;20036;-80
2023/01/06 05:19:58;;;;;;;41.30;4.50;;;8.30;99.90;;;;;;5052508;28;20052;-80
2023/01/06 05:22:23;;;;;;;23.98;4.55;;;8.30;99.90;;;;;;5049069;28;20067;-81
2023/01/06 05:24:49;;;;;;;6.68;3.70;;;8.30;99.90;;;;;;5022979;28;20036;-80
2023/01/06 05:27:15;;;;;;;8.65;3.90;;;8.30;99.90;;;;;;5037733;28;20068;-78
2023/01/06 05:29:41;;;;;;;7.55;4.28;;;8.30;99.90;;;;;;5039179;28;20035;-78
2023/01/06 05:32:07;;;;;;;4.47;3.22;;;8.30;99.90;;;;;;5067656;28;20032;-78
2023/01/06 05:34:33;;;;;;;5.55;3.38;;;8.30;99.90;;;;;;5072572;28;20035;-81
2023/01/06 05:36:59;;;;;;;5.13;3.70;;;8.30;99.90;;;;;;5071995;28;20070;-80
2023/01/06 05:39:25;;;;;;;9.32;3.63;;;8.30;99.90;;;;;;5054389;28;20124;-81
2023/01/06 05:41:51;;;;;;;10.18;3.67;;;8.30;99.90;;;;;;5069053;28;20036;-80
2023/01/06 05:44:17;;;;;;;4.82;3.08;;;8.30;99.90;;;;;;5035271;28;20033;-80
2023/01/06 05:46:43;;;;;;;4.65;3.28;;;8.40;99.90;;;;;;5056939;28;20031;-80
2023/01/06 05:49:08;;;;;;;4.63;2.42;;;8.40;99.90;;;;;;5059582;28;20040;-80
2023/01/06 05:51:35;;;;;;;3.33;2.65;;;8.40;99.90;;;;;;5069200;28;20070;-79
2023/01/06 05:54:00;;;;;;;3.80;2.65;;;8.40;99.90;;;;;;5058517;28;20028;-79
2023/01/06 05:56:26;;;;;;;5.88;2.67;;;8.40;99.90;;;;;;5072896;28;20105;-80
2023/01/06 05:58:52;;;;;;;5.88;2.70;;;8.40;99.90;;;;;;5072847;28;20055;-80
2023/01/06 06:01:22;;;;;;;4.85;2.53;;;8.40;99.90;;;;;;5052811;28;20106;-78
2023/01/06 06:03:49;;;;;;;7.00;2.70;;;8.40;99.90;;;;;;5072337;28;20035;-79
2023/01/06 06:06:16;;;;;;;3.60;2.50;;;8.40;99.90;;;;;;5069710;28;20029;-79
2023/01/06 06:08:43;;;;;;;4.97;2.97;;;8.40;99.90;;;;;;5071325;28;20135;-79
2023/01/06 06:11:11;;;;;;;6.95;2.63;;;8.40;99.90;;;;;;5032464;28;20036;-80
2023/01/06 06:13:38;;;;;;;7.47;2.88;;;8.40;99.90;;;;;;5017834;28;20032;-80
2023/01/06 06:16:09;;;;;;;5.82;3.33;;;8.40;99.90;;;;;;5049469;28;20110;-79
2023/01/06 06:18:41;;;;;;;5.75;3.33;;;8.30;99.90;;;;;;5053010;28;20103;-80
2023/01/06 06:21:08;;;;;;;4.97;2.90;;;8.40;99.90;;;;;;5051607;28;20021;-80
2023/01/06 06:23:34;;;;;;;3.75;2.85;;;8.40;99.90;;;;;;5050008;28;20112;-79
2023/01/06 06:26:01;;;;;;;5.93;3.88;;;8.40;99.90;;;;;;5069235;28;20136;-80
2023/01/06 06:28:30;;;;;;;3.85;2.95;;;8.40;99.90;;;;;;5055167;28;20025;-80
2023/01/06 06:31:04;;;;;;;5.72;3.60;;;8.40;99.90;;;;;;5069536;28;20029;-80
2023/01/06 06:33:30;;;;;;;5.03;3.58;;;8.40;99.90;;;;;;5049847;28;20081;-80
2023/01/06 06:35:57;;;;;;;5.30;3.90;;;8.50;99.90;;;;;;5050504;28;20074;-80
2023/01/06 06:38:27;;;;;;;5.20;3.55;;;8.50;99.90;;;;;;5051969;28;20120;-80
2023/01/06 06:40:52;;;;;;;5.40;3.72;;;8.40;99.90;;;;;;5048533;28;20474;-79
2023/01/06 06:43:18;;;;;;;12.70;4.57;;;8.40;99.90;;;;;;5049940;28;20036;-80
2023/01/06 06:45:46;;;;;;;4.78;3.65;;;8.40;99.90;;;;;;5069197;28;20090;-81
2023/01/06 06:48:12;;;;;;;5.28;4.13;;;8.50;99.90;;;;;;5053733;28;20083;-79
2023/01/06 06:50:38;;;;;;;5.80;3.90;;;8.50;99.90;;;;;;5041735;28;20063;-81
2023/01/06 06:53:06;;;;;;;7.07;4.07;;;8.50;99.90;;;;;;5067649;28;20033;-80
2023/01/06 06:55:32;;;;;;;9.65;4.28;;;8.50;99.90;;;;;;5040453;28;20033;-79
2023/01/06 06:57:58;;;;;;;6.80;3.78;;;8.50;99.90;;;;;;5070875;28;20703;-79
2023/01/06 07:00:25;;;;;;;7.28;4.15;;;8.50;99.90;;;;;;5062400;28;20029;-79
2023/01/06 07:02:51;;;;;;;5.10;4.07;;;8.50;99.90;;;;;;5068066;28;20029;-80
2023/01/06 07:05:17;;;;;;;7.22;3.40;;;8.50;99.90;;;;;;5040499;28;20035;-81
2023/01/06 07:07:44;;;;;;;6.72;3.88;;;8.50;99.90;;;;;;5074130;28;20166;-81
2023/01/06 07:10:14;;;;;;;5.40;4.07;;;8.60;99.90;;;;;;5077222;28;20025;-81
2023/01/06 07:12:40;;;;;;;7.78;3.80;;;8.60;99.90;;;;;;5068145;28;20025;-80
2023/01/06 07:15:07;;;;;;;4.45;3.42;;;8.60;99.90;;;;;;5036321;28;20123;-81
2023/01/06 07:17:33;;;;;;;10.68;3.55;;;8.60;99.90;;;;;;5046771;28;20509;-81
2023/01/06 07:19:59;;;;;;;92.75;7.47;;;8.60;99.90;;;;;;5069962;28;20029;-81
2023/01/06 07:22:25;;;;;;;15.77;3.75;;;8.60;99.90;;;;;;5056973;28;20071;-81
2023/01/06 07:24:50;;;;;;;32.55;3.88;;;8.60;99.90;;;;;;5076735;28;20032;-81
2023/01/06 07:27:16;;;;;;;115.93;8.57;;;8.60;99.90;;;;;;5049178;28;20020;-81
2023/01/06 07:29:42;;;;;;;11.50;3.20;;;8.60;99.90;;;;;;5062507;28;20439;-79
2023/01/06 07:32:08;;;;;;;38.22;3.78;;;8.60;99.90;;;;;;5060457;28;20081;-80
2023/01/06 07:34:34;;;;;;;11.48;2.92;;;8.60;99.90;;;;;;5076210;28;20107;-80
2023/01/06 07:37:00;;;;;;;25.17;3.20;;;8.60;99.90;;;;;;5078465;28;20099;-79
2023/01/06 07:39:26;;;;;;;10.95;2.40;;;8.60;99.90;;;;;;5058307;28;20659;-80
2023/01/06 07:41:52;;;;;;;53.28;4.30;;;8.50;99.90;;;;;;5043027;28;20020;-80
2023/01/06 07:44:19;;;;;;;3.83;2.90;;;8.60;99.90;;;;;;5020622;28;20029;-80
2023/01/06 07:46:45;;;;;;;5.07;2.72;;;8.60;99.90;;;;;;5077212;28;20032;-80
2023/01/06 07:49:10;;;;;;;75.72;6.22;;;8.70;99.90;;;;;;5059048;28;20146;-81
2023/01/06 07:51:36;;;;;;;11.57;3.35;;;8.60;99.90;;;;;;5044601;28;20059;-80
2023/01/06 07:54:02;;;;;;;69.35;6.53;;;8.70;99.90;;;;;;5076012;28;20540;-81
2023/01/06 07:56:28;;;;;;;141.82;9.25;;;8.70;99.90;;;;;;5076677;28;20424;-81
2023/01/06 07:58:53;;;;;;;6.20;2.53;;;8.70;99.90;;;;;;5048390;28;20032;-80
2023/01/06 08:01:19;;;;;;;2.95;2.50;;;8.80;99.90;;;;;;5079003;28;20053;-79
2023/01/06 08:03:45;;;;;;;11.68;2.78;;;8.80;99.90;;;;;;5072496;28;20032;-79
2023/01/06 08:06:12;;;;;;;94.22;6.93;;;8.80;99.90;;;;;;5066361;28;20036;-81
2023/01/06 08:08:39;;;;;;;4.03;3.03;;;8.90;99.90;;;;;;5039957;28;20034;-81
2023/01/06 08:11:07;;;;;;;8.35;3.10;;;8.80;99.90;;;;;;5072525;28;20029;-79
2023/01/06 08:13:33;;;;;;;3.60;2.67;;;8.90;99.90;;;;;;5040130;28;20439;-80
2023/01/06 08:16:03;;;;;;;3.50;2.90;;;8.90;99.90;;;;;;5053430;28;20037;-79
2023/01/06 08:18:29;;;;;;;51.13;5.28;;;8.90;99.90;;;;;;5056391;28;20475;-79
2023/01/06 08:21:07;;;;;;;139.57;9.45;;;8.90;99.90;;;;;;5073958;28;20052;-80
2023/01/06 08:23:34;;;;;;;3.22;2.70;;;9.00;99.90;;;;;;5065626;28;20083;-80
2023/01/06 08:26:05;;;;;;;3.03;2.70;;;8.90;99.90;;;;;;5056346;28;20031;-79
2023/01/06 08:28:30;;;;;;;20.77;3.20;;;8.90;99.90;;;;;;5060572;28;20024;-80
2023/01/06 08:30:57;;;;;;;2.95;2.15;;;8.90;99.90;;;;;;5077164;28;20039;-80
2023/01/06 08:33:24;;;;;;;3.30;1.77;;;8.90;99.90;;;;;;5080418;28;20396;-80
2023/01/06 08:36:11;;;;;;;3.55;2.33;;;8.90;99.90;;;;;;5061438;28;20058;-79
2023/01/06 08:38:37;;;;;;;47.47;4.22;;;8.90;99.90;;;;;;5075488;28;20028;-81
2023/01/06 08:41:04;;;;;;;7.20;2.35;;;8.90;99.90;;;;;;5042590;28;20052;-80
2023/01/06 08:43:30;;;;;;;2.55;2.35;;;8.90;99.90;;;;;;5058508;28;20029;-80
2023/01/06 08:46:01;;;;;;;3.60;1.90;;;8.90;99.90;;;;;;5064353;28;20477;-79
2023/01/06 08:48:28;;;;;;;2.78;2.08;;;8.90;99.90;;;;;;5075806;28;20076;-81
2023/01/06 08:50:55;;;;;;;3.22;1.80;;;9.00;99.90;;;;;;5061855;28;20119;-79
2023/01/06 08:53:21;;;;;;;54.90;4.68;;;9.00;99.90;;;;;;5072860;28;20044;-80
2023/01/06 08:55:47;;;;;;;46.60;3.70;;;9.10;99.90;;;;;;5077898;28;20013;-81
2023/01/06 08:58:13;;;;;;;41.78;4.93;;;9.20;99.90;;;;;;5062145;28;20032;-80
2023/01/06 09:00:58;;;;;;;9.25;1.92;;;9.20;99.90;;;;;;5067799;28;20071;-81
2023/01/06 09:03:24;;;;;;;1.70;1.40;;;9.20;99.90;;;;;;5039759;28;20028;-80
2023/01/06 09:05:55;;;;;;;2.60;1.65;;;9.20;99.90;;;;;;5051566;28;20037;-78
2023/01/06 09:08:21;;;;;;;2.10;1.90;;;9.20;99.90;;;;;;5057522;28;20520;-79
2023/01/06 09:10:47;;;;;;;1.85;1.67;;;9.20;99.90;;;;;;5071453;28;20037;-79
2023/01/06 09:13:14;;;;;;;3.97;1.75;;;9.20;99.90;;;;;;5057678;28;20070;-78
2023/01/06 09:15:40;;;;;;;7.57;1.73;;;9.30;99.90;;;;;;5058959;28;20103;-79
2023/01/06 09:18:07;;;;;;;1.88;1.77;;;9.30;99.90;;;;;;5072764;28;20029;-79
2023/01/06 09:20:34;;;;;;;1.80;1.70;;;9.20;99.90;;;;;;5051377;28;20028;-79
2023/01/06 09:23:00;;;;;;;1.73;1.63;;;9.20;99.90;;;;;;5038286;28;20032;-81
2023/01/06 09:25:26;;;;;;;1.80;1.70;;;9.30;99.90;;;;;;5042360;28;20025;-80
2023/01/06 09:27:52;;;;;;;1.58;1.48;;;9.30;99.90;;;;;;5052834;28;20124;-78
2023/01/06 09:30:18;;;;;;;4.03;1.33;;;9.30;99.90;;;;;;5057801;28;20043;-79
2023/01/06 09:32:44;;;;;;;1.80;0.93;;;9.40;99.90;;;;;;5033599;28;20028;-77
2023/01/06 09:35:09;;;;;;;2.15;0.90;;;9.40;99.90;;;;;;5034752;28;20033;-78
2023/01/06 09:37:35;;;;;;;2.83;1.10;;;9.40;99.90;;;;;;5073893;28;20021;-80
2023/01/06 09:40:02;;;;;;;1.13;0.80;;;9.50;99.90;;;;;;5038648;28;20033;-79
2023/01/06 09:42:55;;;;;;;5.63;2.65;;;9.50;99.90;;;;;;5053582;28;20040;-80
2023/01/06 09:45:37;;;;;;;3.20;0.77;;;9.50;99.90;;;;;;5055353;28;20408;-80
2023/01/06 09:48:07;;;;;;;1.52;0.70;;;9.50;99.90;;;;;;5056864;28;20118;-81
2023/01/06 09:50:38;;;;;;;0.65;0.65;;;9.50;99.90;;;;;;5063569;28;20141;-80
2023/01/06 09:53:09;;;;;;;0.60;0.60;;;9.50;99.90;;;;;;5064955;28;20048;-78
2023/01/06 09:55:41;;;;;;;0.70;0.70;;;9.40;99.90;;;;;;5034612;28;20028;-78
2023/01/06 09:58:16;;;;;;;0.50;0.50;;;9.40;99.90;;;;;;5050702;28;20112;-79
2023/01/06 10:00:46;;;;;;;0.98;0.50;;;9.40;99.90;;;;;;5069330;28;20516;-78
2023/01/06 10:03:24;;;;;;;0.70;0.68;;;9.40;99.90;;;;;;5061850;28;20017;-80
2023/01/06 10:06:19;;;;;;;1.35;0.60;;;9.40;99.90;;;;;;5047946;28;20481;-79
2023/01/06 10:08:54;;;;;;;2.05;0.98;;;9.30;99.90;;;;;;5055691;28;20029;-81
2023/01/06 10:11:32;;;;;;;1.35;1.00;;;9.30;99.90;;;;;;5050584;28;20434;-80
2023/01/06 10:14:32;;;;;;;1.08;0.98;;;9.30;99.90;;;;;;5049158;28;20028;-80
2023/01/06 10:17:15;;;;;;;3.03;1.05;;;9.30;99.90;;;;;;5070872;28;20032;-81
2023/01/06 10:19:54;;;;;;;1.17;1.08;;;9.40;99.90;;;;;;5065774;28;20017;-79
2023/01/06 10:22:32;;;;;;;1.17;1.00;;;9.30;99.90;;;;;;5038933;28;20078;-80
2023/01/06 10:25:17;;;;;;;1.27;1.17;;;9.30;99.90;;;;;;5054967;28;20087;-79
2023/01/06 10:28:09;;;;;;;1.77;1.13;;;9.20;99.90;;;;;;5079071;28;20050;-80
2023/01/06 10:30:57;;;;;;;1.27;1.23;;;9.20;99.90;;;;;;5057999;28;20173;-79
2023/01/06 10:33:27;;;;;;;1.40;1.00;;;9.20;99.90;;;;;;5066126;28;20047;-80
2023/01/06 10:35:54;;;;;;;2.22;0.90;;;9.20;99.90;;;;;;5068934;28;20025;-80
2023/01/06 10:38:37;;;;;;;1.10;1.00;;;9.20;99.90;;;;;;5075062;28;20607;-79
2023/01/06 10:41:20;;;;;;;1.50;1.00;;;9.20;99.90;;;;;;5069769;28;20024;-78
2023/01/06 10:43:45;;;;;;;1.45;1.30;;;9.30;99.90;;;;;;5068340;28;20032;-77
2023/01/06 10:46:11;;;;;;;1.75;1.25;;;9.30;99.90;;;;;;5070637;28;20037;-78
2023/01/06 10:48:38;;;;;;;1.20;1.10;;;9.30;99.90;;;;;;5051879;28;20095;-78
2023/01/06 10:51:47;;;;;;;1.63;1.45;;;9.30;99.90;;;;;;5033088;28;20122;-78
2023/01/06 10:54:32;;;;;;;1.90;1.50;;;9.30;99.90;;;;;;5046403;28;20088;-78
2023/01/06 10:57:21;;;;;;;1.20;1.10;;;9.40;99.90;;;;;;5073720;28;20032;-80
2023/01/06 11:00:16;;;;;;;1.73;1.63;;;9.40;99.90;;;;;;5034435;28;20033;-80
2023/01/06 11:02:45;;;;;;;1.10;0.93;;;9.30;99.90;;;;;;5074674;28;20071;-79
2023/01/06 11:05:13;;;;;;;1.23;1.13;;;9.20;99.90;;;;;;5076766;28;20017;-79
2023/01/06 11:08:13;;;;;;;1.35;0.90;;;9.30;99.90;;;;;;5059053;28;20685;-80
2023/01/06 11:10:42;;;;;;;0.90;0.90;;;9.30;99.90;;;;;;5068907;28;20427;-79
2023/01/06 11:13:25;;;;;;;1.27;1.05;;;9.30;99.90;;;;;;5071220;28;20028;-77
2023/01/06 11:15:53;;;;;;;0.90;0.90;;;9.30;99.90;;;;;;5074749;28;20056;-80
2023/01/06 11:18:28;;;;;;;0.60;0.60;;;9.30;99.90;;;;;;5054906;28;20025;-79
2023/01/06 11:21:03;;;;;;;0.65;0.50;;;9.30;99.90;;;;;;5077265;28;20117;-78
2023/01/06 11:23:30;;;;;;;0.70;0.70;;;9.20;99.90;;;;;;5065275;28;20032;-80
2023/01/06 11:26:04;;;;;;;0.40;0.40;;;9.20;99.90;;;;;;5055925;28;20424;-78
2023/01/06 11:28:30;;;;;;;0.40;0.40;;;9.20;99.90;;;;;;5073894;28;20701;-78
2023/01/06 11:31:05;;;;;;;0.73;0.57;;;9.20;99.90;;;;;;5073332;28;20078;-78
2023/01/06 11:33:35;;;;;;;0.65;0.40;;;9.30;99.90;;;;;;5071819;28;20067;-78
2023/01/06 11:36:10;;;;;;;0.95;0.65;;;9.30;99.90;;;;;;5071177;28;20105;-79
2023/01/06 11:38:53;;;;;;;0.50;0.50;;;9.30;99.90;;;;;;5037680;28;20599;-79
2023/01/06 11:41:34;;;;;;;0.70;0.65;;;9.30;99.90;;;;;;5069003;28;20493;-78
2023/01/06 11:44:13;;;;;;;0.50;0.50;;;9.30;99.90;;;;;;5046441;28;20048;-77
2023/01/06 11:46:48;;;;;;;0.65;0.50;;;9.20;99.90;;;;;;5049341;28;20024;-79
2023/01/06 11:49:20;;;;;;;1.58;0.60;;;9.30;99.90;;;;;;5071029;28;20031;-78
2023/01/06 11:51:48;;;;;;;0.40;0.40;;;9.20;99.90;;;;;;5049220;28;20119;-79
2023/01/06 11:54:32;;;;;;;1.42;0.52;;;9.10;99.90;;;;;;5051092;28;20111;-78
2023/01/06 11:57:02;;;;;;;0.40;0.40;;;9.10;99.90;;;;;;5067502;28;20521;-79
2023/01/06 11:59:44;;;;;;;0.85;0.38;;;9.10;99.90;;;;;;5071771;28;20036;-79
2023/01/06 12:02:16;;;;;;;0.20;0.20;;;9.00;99.90;;;;;;5066686;28;20020;-79
2023/01/06 12:04:55;;;;;;;0.93;0.45;;;8.90;99.90;;;;;;5047099;28;20092;-80
2023/01/06 12:07:34;;;;;;;0.43;0.28;;;8.90;99.90;;;;;;5070006;28;20050;-80
2023/01/06 12:10:10;;;;;;;0.68;0.40;;;8.90;99.90;;;;;;5074060;28;20042;-78
2023/01/06 12:12:36;;;;;;;1.33;0.40;;;8.80;99.90;;;;;;5071883;28;20832;-80
2023/01/06 12:15:03;;;;;;;0.88;0.50;;;8.70;99.90;;;;;;5018419;28;20081;-78
2023/01/06 12:17:42;;;;;;;0.40;0.32;;;8.60;99.90;;;;;;5071456;28;20169;-79
2023/01/06 12:20:26;;;;;;;1.52;0.20;;;8.60;99.90;;;;;;5066628;28;20153;-80
2023/01/06 12:23:00;;;;;;;1.45;0.40;;;8.60;99.90;;;;;;5069752;28;20445;-79
2023/01/06 12:25:36;;;;;;;1.08;0.30;;;8.50;99.90;;;;;;5043124;28;20029;-77
2023/01/06 12:28:08;;;;;;;0.40;0.40;;;8.50;99.90;;;;;;5066595;28;20500;-77
2023/01/06 12:30:49;;;;;;;0.60;0.60;;;8.50;99.90;;;;;;5049494;28;20654;-80
2023/01/06 12:33:24;;;;;;;0.70;0.50;;;8.50;99.90;;;;;;5062153;28;20031;-79
2023/01/06 12:35:55;;;;;;;0.60;0.50;;;8.40;99.90;;;;;;5050884;28;20485;-79
2023/01/06 12:38:45;;;;;;;0.70;0.70;;;8.40;99.90;;;;;;5041501;28;20574;-79
2023/01/06 12:41:33;;;;;;;1.40;1.20;;;8.40;99.90;;;;;;5068121;28;20128;-79
2023/01/06 12:44:01;;;;;;;2.08;0.93;;;8.40;99.90;;;;;;5048055;28;20041;-79
2023/01/06 12:46:38;;;;;;;1.13;0.88;;;8.30;99.90;;;;;;5060885;28;20444;-78
2023/01/06 12:49:19;;;;;;;1.10;0.75;;;8.30;99.90;;;;;;5071548;28;20020;-78
2023/01/06 12:51:52;;;;;;;0.85;0.70;;;8.30;99.90;;;;;;5049929;28;20326;-80
2023/01/06 12:54:26;;;;;;;0.75;0.75;;;8.20;99.90;;;;;;5057970;28;20054;-80
2023/01/06 12:57:10;;;;;;;2.53;1.20;;;8.30;99.90;;;;;;5049572;28;20096;-79
2023/01/06 12:59:36;;;;;;;2.50;1.05;;;8.20;99.90;;;;;;5075192;28;20025;-78
2023/01/06 13:02:08;;;;;;;1.25;1.10;;;8.20;99.90;;;;;;5071257;28;20045;-79
2023/01/06 13:04:44;;;;;;;3.65;1.00;;;8.20;99.90;;;;;;5056808;28;20052;-79
2023/01/06 13:07:19;;;;;;;1.20;1.05;;;8.10;99.90;;;;;;5065302;28;20027;-79
2023/01/06 13:10:22;;;;;;;1.67;0.90;;;8.10;99.90;;;;;;5074818;28;20032;-79
2023/01/06 13:12:52;;;;;;;0.80;0.80;;;8.10;99.90;;;;;;5053039;28;20047;-78
2023/01/06 13:15:23;;;;;;;2.03;0.93;;;8.10;99.90;;;;;;5076545;28;20020;-79
2023/01/06 13:18:10;;;;;;;1.25;0.95;;;8.10;99.90;;;;;;5056480;28;20017;-79
2023/01/06 13:20:42;;;;;;;2.55;1.00;;;8.10;99.90;;;;;;5067953;28;20033;-79
2023/01/06 13:23:46;;;;;;;0.80;0.80;;;8.10;99.90;;;;;;5068321;28;20084;-80